Time;durP1;ratioP1;P1;durP2;ratioP2;P2;SDS_P1;SDS_P2;PMS_P1;PMS_P2;Temp;Humidity;BMP_temperature;BMP_pressure;BME280_temperature;BME280_humidity;BME280_pressure;Samples;Min_cycle;Max_cycle;Signal;HPM_P1;HPM_P2
2023/03/22 00:02:22;;;;;;;0.00;0.00;;;8.20;99.90;;;;;;4972257;28;20310;-59
2023/03/22 00:04:47;;;;;;;0.03;0.03;;;8.20;99.90;;;;;;4972981;28;20180;-59
2023/03/22 00:07:13;;;;;;;0.00;0.00;;;8.20;99.90;;;;;;4972152;28;20184;-58
2023/03/22 00:09:39;;;;;;;0.00;0.00;;;8.20;99.90;;;;;;4970150;28;20188;-58
2023/03/22 00:12:04;;;;;;;0.20;0.20;;;8.20;99.90;;;;;;4965615;28;20180;-58
2023/03/22 00:14:30;;;;;;;0.00;0.00;;;8.20;99.90;;;;;;4972625;28;20263;-58
2023/03/22 00:16:56;;;;;;;0.05;0.05;;;8.20;99.90;;;;;;4972589;28;20177;-58
2023/03/22 00:19:22;;;;;;;0.00;0.00;;;8.20;99.90;;;;;;4971848;28;20280;-58
2023/03/22 00:21:47;;;;;;;0.15;0.15;;;8.20;99.90;;;;;;4972760;28;20211;-58
2023/03/22 00:24:13;;;;;;;0.00;0.00;;;8.20;99.90;;;;;;4972426;28;20172;-59
2023/03/22 00:26:38;;;;;;;0.00;0.00;;;8.20;99.90;;;;;;4972656;28;20180;-58
2023/03/22 00:29:04;;;;;;;0.00;0.00;;;8.20;99.90;;;;;;4972373;28;20184;-58
2023/03/22 00:31:30;;;;;;;0.20;0.20;;;8.10;99.90;;;;;;4972721;28;20621;-58
2023/03/22 00:33:55;;;;;;;0.00;0.00;;;8.10;99.90;;;;;;4972302;28;20191;-58
2023/03/22 00:36:21;;;;;;;0.00;0.00;;;8.10;99.90;;;;;;4972149;28;20181;-59
2023/03/22 00:38:47;;;;;;;0.00;0.00;;;8.10;99.90;;;;;;4972267;28;20188;-59
2023/03/22 00:41:17;;;;;;;0.75;0.25;;;8.10;99.90;;;;;;4971928;28;20216;-59
2023/03/22 00:43:43;;;;;;;0.15;0.15;;;8.10;99.90;;;;;;4972163;28;20639;-59
2023/03/22 00:46:10;;;;;;;0.00;0.00;;;8.10;99.90;;;;;;4972268;28;20218;-59
2023/03/22 00:48:35;;;;;;;0.00;0.00;;;8.20;99.90;;;;;;4972012;28;20187;-59
2023/03/22 00:51:01;;;;;;;0.43;0.43;;;8.20;99.90;;;;;;4971486;28;20192;-59
2023/03/22 00:53:27;;;;;;;0.00;0.00;;;8.20;99.90;;;;;;4967991;28;20177;-58
2023/03/22 00:55:54;;;;;;;0.65;0.40;;;8.20;99.90;;;;;;4961725;28;20576;-59
2023/03/22 00:58:20;;;;;;;0.32;0.32;;;8.30;99.90;;;;;;4971779;28;20184;-59
2023/03/22 01:00:46;;;;;;;0.00;0.00;;;8.30;99.90;;;;;;4971673;28;20212;-58
2023/03/22 01:03:13;;;;;;;0.00;0.00;;;8.30;99.90;;;;;;4971383;28;20272;-59
2023/03/22 01:05:38;;;;;;;0.00;0.00;;;8.30;99.90;;;;;;4972540;28;20176;-60
2023/03/22 01:08:07;;;;;;;0.00;0.00;;;8.40;99.90;;;;;;4971562;28;20181;-57
2023/03/22 01:10:37;;;;;;;0.00;0.00;;;8.40;99.90;;;;;;4978084;28;20226;-57
2023/03/22 01:13:03;;;;;;;0.10;0.10;;;8.40;99.90;;;;;;4976205;28;20222;-57
2023/03/22 01:15:28;;;;;;;0.00;0.00;;;8.40;99.90;;;;;;4971685;28;20204;-57
2023/03/22 01:17:54;;;;;;;0.00;0.00;;;8.40;99.90;;;;;;4971667;28;20307;-58
2023/03/22 01:20:20;;;;;;;0.10;0.10;;;8.40;99.90;;;;;;4971568;28;20195;-57
2023/03/22 01:22:45;;;;;;;0.00;0.00;;;8.40;99.90;;;;;;4971954;28;20191;-57
2023/03/22 01:25:12;;;;;;;0.00;0.00;;;8.40;99.90;;;;;;4975720;28;20579;-57
2023/03/22 01:27:37;;;;;;;0.00;0.00;;;8.40;99.90;;;;;;4990869;28;20179;-57
2023/03/22 01:30:04;;;;;;;0.75;0.75;;;8.40;99.90;;;;;;4971802;28;20203;-57
2023/03/22 01:32:30;;;;;;;0.00;0.00;;;8.40;99.90;;;;;;4971808;28;20184;-57
2023/03/22 01:34:56;;;;;;;0.10;0.05;;;8.40;99.90;;;;;;4966053;28;20184;-57
2023/03/22 01:37:24;;;;;;;0.13;0.13;;;8.40;99.90;;;;;;4971699;28;20184;-57
2023/03/22 01:39:49;;;;;;;0.00;0.00;;;8.40;99.90;;;;;;4971754;28;20180;-56
2023/03/22 01:42:17;;;;;;;0.32;0.32;;;8.30;99.90;;;;;;4971725;28;20212;-57
2023/03/22 01:44:43;;;;;;;0.00;0.00;;;8.30;99.90;;;;;;4987436;28;20191;-57
2023/03/22 01:47:10;;;;;;;0.10;0.10;;;8.30;99.90;;;;;;4987544;28;20667;-57
2023/03/22 01:49:36;;;;;;;0.00;0.00;;;8.30;99.90;;;;;;4971476;28;20196;-57
2023/03/22 01:52:13;;;;;;;0.10;0.10;;;8.20;99.90;;;;;;4971512;28;20234;-57
2023/03/22 01:54:45;;;;;;;0.00;0.00;;;8.20;99.90;;;;;;4971709;28;20211;-59
2023/03/22 01:57:11;;;;;;;0.00;0.00;;;8.20;99.90;;;;;;4971760;28;20176;-58
2023/03/22 01:59:38;;;;;;;0.80;0.40;;;8.10;99.90;;;;;;4971427;28;20218;-58
2023/03/22 02:02:04;;;;;;;0.00;0.00;;;8.10;99.90;;;;;;4971892;28;20275;-58
2023/03/22 02:04:33;;;;;;;0.00;0.00;;;8.10;99.90;;;;;;4971952;28;20181;-58
2023/03/22 02:07:09;;;;;;;0.10;0.10;;;8.10;99.90;;;;;;4971602;28;20176;-58
2023/03/22 02:09:40;;;;;;;0.20;0.20;;;8.00;99.90;;;;;;4971601;28;20238;-58
2023/03/22 02:12:30;;;;;;;0.00;0.00;;;8.00;99.90;;;;;;4971508;28;20231;-58
2023/03/22 02:15:11;;;;;;;0.00;0.00;;;8.00;99.90;;;;;;4973831;28;20176;-58
2023/03/22 02:17:58;;;;;;;0.08;0.08;;;7.90;99.90;;;;;;4974944;28;20219;-58
2023/03/22 02:20:40;;;;;;;0.05;0.05;;;7.90;99.90;;;;;;4955706;28;20524;-58
2023/03/22 02:23:24;;;;;;;0.00;0.00;;;7.90;99.90;;;;;;4974638;28;20195;-58
2023/03/22 02:26:19;;;;;;;0.03;0.03;;;7.80;99.90;;;;;;4975136;28;20176;-57
2023/03/22 02:29:16;;;;;;;0.00;0.00;;;7.80;99.90;;;;;;4975254;28;20186;-57
2023/03/22 02:32:05;;;;;;;0.00;0.00;;;7.80;99.90;;;;;;4974774;28;20274;-57
2023/03/22 02:34:45;;;;;;;0.15;0.15;;;7.80;99.90;;;;;;4969608;28;20547;-56
2023/03/22 02:37:36;;;;;;;0.10;0.10;;;7.70;99.90;;;;;;4972009;28;20184;-57
2023/03/22 02:40:08;;;;;;;0.40;0.40;;;7.70;99.90;;;;;;4974101;28;20651;-57
2023/03/22 02:42:51;;;;;;;0.10;0.10;;;7.70;99.90;;;;;;4976163;28;20314;-57
2023/03/22 02:45:30;;;;;;;0.00;0.00;;;7.70;99.90;;;;;;4970822;28;20223;-57
2023/03/22 02:48:05;;;;;;;0.00;0.00;;;7.70;99.90;;;;;;4974369;28;20188;-57
2023/03/22 02:51:00;;;;;;;0.00;0.00;;;7.60;99.90;;;;;;4973713;28;20188;-57
2023/03/22 02:53:54;;;;;;;0.00;0.00;;;7.60;99.90;;;;;;4988505;28;20194;-57
2023/03/22 02:56:52;;;;;;;0.00;0.00;;;7.60;99.90;;;;;;4985837;28;20188;-58
2023/03/22 02:59:20;;;;;;;0.00;0.00;;;7.60;99.90;;;;;;4966752;28;20192;-58
2023/03/22 03:01:56;;;;;;;0.10;0.10;;;7.60;99.90;;;;;;4973632;28;20216;-58
2023/03/22 03:04:31;;;;;;;0.00;0.00;;;7.60;99.90;;;;;;4974112;28;20211;-58
2023/03/22 03:07:03;;;;;;;0.05;0.05;;;7.60;99.90;;;;;;4973990;28;20182;-58
2023/03/22 03:09:30;;;;;;;0.00;0.00;;;7.60;99.90;;;;;;4989174;28;20187;-58
2023/03/22 03:11:55;;;;;;;0.00;0.00;;;7.60;99.90;;;;;;4982598;28;20820;-58
2023/03/22 03:14:26;;;;;;;0.65;0.30;;;7.70;99.90;;;;;;4973511;28;20184;-59
2023/03/22 03:17:15;;;;;;;0.00;0.00;;;7.60;99.90;;;;;;4973866;28;20250;-59
2023/03/22 03:19:59;;;;;;;0.00;0.00;;;7.60;99.90;;;;;;4935764;28;20247;-58
2023/03/22 03:22:52;;;;;;;0.00;0.00;;;7.60;99.90;;;;;;4967677;28;20591;-59
2023/03/22 03:25:32;;;;;;;0.00;0.00;;;7.60;99.90;;;;;;4973926;28;20184;-59
2023/03/22 03:28:10;;;;;;;0.10;0.10;;;7.60;99.90;;;;;;4973854;28;20220;-59
2023/03/22 03:30:59;;;;;;;0.00;0.00;;;7.70;99.90;;;;;;4973561;28;20541;-58
2023/03/22 03:33:26;;;;;;;0.00;0.00;;;7.70;99.90;;;;;;4973211;28;20706;-58
2023/03/22 03:35:59;;;;;;;0.00;0.00;;;7.80;99.90;;;;;;4960776;28;20223;-58
2023/03/22 03:38:28;;;;;;;0.00;0.00;;;7.80;99.90;;;;;;4973804;28;20206;-58
2023/03/22 03:40:59;;;;;;;0.00;0.00;;;7.80;99.90;;;;;;4973195;28;20675;-58
2023/03/22 03:43:25;;;;;;;0.00;0.00;;;7.90;99.90;;;;;;4979410;28;20603;-58
2023/03/22 03:45:53;;;;;;;0.00;0.00;;;8.00;99.90;;;;;;4978379;28;20176;-58
2023/03/22 03:48:22;;;;;;;0.25;0.10;;;8.00;99.90;;;;;;4973551;28;20255;-58
2023/03/22 03:50:50;;;;;;;0.00;0.00;;;8.00;99.90;;;;;;4970682;28;20206;-58
2023/03/22 03:53:16;;;;;;;0.10;0.10;;;8.10;99.90;;;;;;4954349;28;20185;-59
2023/03/22 03:55:41;;;;;;;0.00;0.00;;;8.10;99.90;;;;;;4956294;28;20236;-58
2023/03/22 03:58:08;;;;;;;0.55;0.55;;;8.20;99.90;;;;;;4973449;28;20195;-58
2023/03/22 04:00:34;;;;;;;0.00;0.00;;;8.20;99.90;;;;;;4973134;28;20184;-58
2023/03/22 04:03:00;;;;;;;0.00;0.00;;;8.30;99.90;;;;;;4973252;28;20210;-58
2023/03/22 04:05:26;;;;;;;0.00;0.00;;;8.40;99.90;;;;;;4973534;28;20639;-58
2023/03/22 04:07:52;;;;;;;0.00;0.00;;;8.50;99.90;;;;;;4972962;28;20659;-58
2023/03/22 04:10:17;;;;;;;0.00;0.00;;;8.60;99.90;;;;;;4973177;28;20183;-58
2023/03/22 04:12:43;;;;;;;0.10;0.10;;;8.60;99.90;;;;;;4972885;28;20200;-58
2023/03/22 04:15:10;;;;;;;0.10;0.10;;;8.60;99.90;;;;;;4973108;28;20203;-58
2023/03/22 04:17:36;;;;;;;0.00;0.00;;;8.70;99.90;;;;;;4972805;28;20224;-59
2023/03/22 04:20:03;;;;;;;0.08;0.08;;;8.70;99.90;;;;;;4972721;28;20184;-59
2023/03/22 04:22:33;;;;;;;0.00;0.00;;;8.80;99.90;;;;;;4972494;28;20220;-59
2023/03/22 04:25:02;;;;;;;0.00;0.00;;;8.80;99.90;;;;;;4972985;28;20184;-59
2023/03/22 04:27:30;;;;;;;0.13;0.13;;;8.80;99.90;;;;;;4972678;28;20204;-58
2023/03/22 04:29:56;;;;;;;0.00;0.00;;;8.80;99.90;;;;;;4961746;28;20187;-60
2023/03/22 04:32:22;;;;;;;0.08;0.08;;;8.80;99.90;;;;;;4971762;28;20197;-60
2023/03/22 04:34:49;;;;;;;0.57;0.57;;;8.90;99.90;;;;;;4972399;28;20652;-60
2023/03/22 04:37:16;;;;;;;0.00;0.00;;;8.80;99.90;;;;;;4972069;28;20195;-57
2023/03/22 04:39:41;;;;;;;0.10;0.10;;;8.90;99.90;;;;;;4960044;28;20188;-57
2023/03/22 04:42:07;;;;;;;0.00;0.00;;;8.90;99.90;;;;;;4953120;28;20217;-58
2023/03/22 04:44:32;;;;;;;0.00;0.00;;;8.90;99.90;;;;;;4983067;28;20172;-57
2023/03/22 04:46:58;;;;;;;0.00;0.00;;;8.80;99.90;;;;;;4972128;28;20184;-57
2023/03/22 04:49:25;;;;;;;0.05;0.05;;;8.80;99.90;;;;;;4972382;28;20187;-58
2023/03/22 04:51:52;;;;;;;0.00;0.00;;;8.80;99.90;;;;;;4972367;28;20246;-57
2023/03/22 04:54:17;;;;;;;0.00;0.00;;;8.70;99.90;;;;;;4971929;28;20199;-60
2023/03/22 04:56:43;;;;;;;0.00;0.00;;;8.70;99.90;;;;;;4972120;28;20188;-57
2023/03/22 04:59:09;;;;;;;0.00;0.00;;;8.70;99.90;;;;;;4972089;28;20538;-58
2023/03/22 05:01:36;;;;;;;0.00;0.00;;;8.60;99.90;;;;;;4971810;28;20220;-59
2023/03/22 05:04:02;;;;;;;0.05;0.05;;;8.50;99.90;;;;;;4972064;28;20176;-60
2023/03/22 05:06:31;;;;;;;0.10;0.10;;;8.50;99.90;;;;;;4972185;28;20184;-58
2023/03/22 05:08:57;;;;;;;0.00;0.00;;;8.40;99.90;;;;;;4971783;28;20176;-58
2023/03/22 05:11:26;;;;;;;0.00;0.00;;;8.50;99.90;;;;;;4971642;28;20334;-58
2023/03/22 05:13:52;;;;;;;0.45;0.28;;;8.40;99.90;;;;;;4971560;28;20643;-58
2023/03/22 05:16:18;;;;;;;0.00;0.00;;;8.40;99.90;;;;;;4967824;28;20184;-58
2023/03/22 05:18:44;;;;;;;0.00;0.00;;;8.30;99.90;;;;;;4978233;28;20227;-58
2023/03/22 05:21:14;;;;;;;0.00;0.00;;;8.30;99.90;;;;;;4971064;28;20231;-58
2023/03/22 05:23:44;;;;;;;0.10;0.10;;;8.30;99.90;;;;;;4972037;28;20611;-58
2023/03/22 05:26:14;;;;;;;0.00;0.00;;;8.30;99.90;;;;;;4971932;28;20180;-58
2023/03/22 05:28:41;;;;;;;0.00;0.00;;;8.30;99.90;;;;;;4971983;28;20168;-58
2023/03/22 05:31:07;;;;;;;0.00;0.00;;;8.20;99.90;;;;;;4971700;28;20176;-58
2023/03/22 05:33:33;;;;;;;0.20;0.10;;;8.10;99.90;;;;;;4971763;28;20180;-58
2023/03/22 05:35:59;;;;;;;0.00;0.00;;;8.10;99.90;;;;;;4971773;28;20635;-58
2023/03/22 05:38:25;;;;;;;0.40;0.40;;;8.10;99.90;;;;;;4971973;28;20187;-58
2023/03/22 05:40:50;;;;;;;0.00;0.00;;;8.10;99.90;;;;;;4971440;28;20198;-58
2023/03/22 05:43:16;;;;;;;0.10;0.10;;;8.00;99.90;;;;;;4976234;28;20225;-58
2023/03/22 05:45:42;;;;;;;0.00;0.00;;;8.00;99.90;;;;;;4985650;28;20184;-58
2023/03/22 05:48:07;;;;;;;0.03;0.03;;;7.90;99.90;;;;;;4971368;28;20226;-58
2023/03/22 05:50:34;;;;;;;0.00;0.00;;;7.90;99.90;;;;;;4974427;28;20172;-58
2023/03/22 05:53:00;;;;;;;0.15;0.15;;;7.90;99.90;;;;;;4975270;28;20186;-58
2023/03/22 05:55:26;;;;;;;0.00;0.00;;;7.90;99.90;;;;;;4975290;28;20192;-58
2023/03/22 05:57:53;;;;;;;0.00;0.00;;;7.90;99.90;;;;;;4975383;28;20182;-58
2023/03/22 06:00:20;;;;;;;0.00;0.00;;;7.90;99.90;;;;;;4975241;28;20180;-58
2023/03/22 06:02:47;;;;;;;0.00;0.00;;;7.90;99.90;;;;;;4975174;28;20204;-58
2023/03/22 06:05:14;;;;;;;0.00;0.00;;;7.90;99.90;;;;;;4975351;28;20188;-59
2023/03/22 06:07:40;;;;;;;0.00;0.00;;;7.90;99.90;;;;;;4975183;28;20689;-58
2023/03/22 06:10:07;;;;;;;0.08;0.08;;;7.90;99.90;;;;;;4974959;28;20184;-58
2023/03/22 06:12:33;;;;;;;0.00;0.00;;;7.90;99.90;;;;;;4975328;28;20203;-58
2023/03/22 06:14:59;;;;;;;0.03;0.03;;;8.00;99.90;;;;;;4975023;28;20180;-58
2023/03/22 06:17:25;;;;;;;0.00;0.00;;;8.00;99.90;;;;;;4974949;28;20208;-58
2023/03/22 06:19:53;;;;;;;1.17;0.35;;;8.00;99.90;;;;;;4975116;28;20191;-58
2023/03/22 06:22:19;;;;;;;0.00;0.00;;;8.10;99.90;;;;;;4974679;28;20223;-58
2023/03/22 06:24:45;;;;;;;0.00;0.00;;;8.20;99.90;;;;;;4975195;28;20188;-58
2023/03/22 06:27:10;;;;;;;0.00;0.00;;;8.30;99.90;;;;;;4974970;28;20255;-58
2023/03/22 06:29:36;;;;;;;0.00;0.00;;;8.50;99.90;;;;;;4974966;28;20176;-58
2023/03/22 06:32:02;;;;;;;0.10;0.10;;;8.70;99.90;;;;;;4974688;28;20184;-58
2023/03/22 06:34:28;;;;;;;0.00;0.00;;;9.00;99.90;;;;;;4974805;28;20203;-58
2023/03/22 06:36:54;;;;;;;0.00;0.00;;;9.30;99.90;;;;;;4974704;28;20355;-59
2023/03/22 06:39:20;;;;;;;0.00;0.00;;;9.80;99.90;;;;;;4974825;28;20263;-58
2023/03/22 06:41:46;;;;;;;0.00;0.00;;;10.30;99.90;;;;;;4974576;28;20306;-58
2023/03/22 06:44:12;;;;;;;0.00;0.00;;;10.80;99.90;;;;;;4986336;28;20211;-58
2023/03/22 06:46:38;;;;;;;0.00;0.00;;;11.30;99.90;;;;;;4988875;28;20191;-58
2023/03/22 06:49:04;;;;;;;0.00;0.00;;;11.70;99.90;;;;;;4974474;28;20164;-58
2023/03/22 06:51:30;;;;;;;0.00;0.00;;;12.10;99.90;;;;;;4974441;28;20199;-59
2023/03/22 06:53:56;;;;;;;0.00;0.00;;;12.60;99.90;;;;;;4974394;28;20195;-58
2023/03/22 06:56:22;;;;;;;0.00;0.00;;;12.90;99.90;;;;;;4985177;28;20191;-58
2023/03/22 06:58:50;;;;;;;0.00;0.00;;;13.00;99.90;;;;;;4974291;28;20608;-58
2023/03/22 07:01:19;;;;;;;0.00;0.00;;;13.20;99.90;;;;;;4973660;28;20679;-58
2023/03/22 07:03:45;;;;;;;0.00;0.00;;;13.40;99.90;;;;;;4974160;28;20215;-58
2023/03/22 07:06:12;;;;;;;0.00;0.00;;;13.70;99.90;;;;;;4974170;28;20621;-59
2023/03/22 07:08:38;;;;;;;0.00;0.00;;;14.00;99.90;;;;;;4974087;28;20192;-59
2023/03/22 07:11:04;;;;;;;0.00;0.00;;;14.40;99.50;;;;;;4974079;28;20204;-59
2023/03/22 07:13:30;;;;;;;0.00;0.00;;;14.80;98.80;;;;;;4974024;28;20173;-58
2023/03/22 07:15:57;;;;;;;0.00;0.00;;;15.30;97.60;;;;;;4973932;28;20180;-59
2023/03/22 07:18:23;;;;;;;0.00;0.00;;;15.80;96.80;;;;;;4973789;28;20216;-58
2023/03/22 07:20:49;;;;;;;0.00;0.00;;;16.10;95.50;;;;;;4973773;28;20247;-59
2023/03/22 07:23:15;;;;;;;0.00;0.00;;;16.60;94.50;;;;;;4973723;28;20191;-59
2023/03/22 07:25:41;;;;;;;0.00;0.00;;;17.10;93.50;;;;;;4973898;28;20199;-59
2023/03/22 07:28:09;;;;;;;0.00;0.00;;;17.60;92.00;;;;;;4973716;28;20185;-58
2023/03/22 07:30:36;;;;;;;0.00;0.00;;;18.00;91.00;;;;;;4973952;28;20189;-59
2023/03/22 07:33:02;;;;;;;0.00;0.00;;;18.20;89.80;;;;;;4956755;28;20172;-58
2023/03/22 07:35:28;;;;;;;0.00;0.00;;;18.30;87.00;;;;;;4974096;28;20191;-59
2023/03/22 07:37:54;;;;;;;0.00;0.00;;;18.50;86.40;;;;;;4974151;28;20485;-58
2023/03/22 07:40:19;;;;;;;0.00;0.00;;;18.50;83.50;;;;;;4974030;28;20266;-59
2023/03/22 07:42:47;;;;;;;0.00;0.00;;;18.30;83.60;;;;;;4974035;28;20234;-59
2023/03/22 07:45:13;;;;;;;0.00;0.00;;;18.30;84.70;;;;;;4991733;28;20172;-58
2023/03/22 07:47:38;;;;;;;0.00;0.00;;;18.50;84.20;;;;;;4973560;28;20230;-59
2023/03/22 07:50:04;;;;;;;0.00;0.00;;;18.50;82.60;;;;;;4973784;28;20176;-58
2023/03/22 07:52:30;;;;;;;0.00;0.00;;;18.60;83.60;;;;;;4973678;28;20178;-59
2023/03/22 07:54:55;;;;;;;0.00;0.00;;;19.00;83.50;;;;;;4973626;28;20180;-59
2023/03/22 07:57:21;;;;;;;0.00;0.00;;;19.40;81.00;;;;;;4973418;28;20188;-59
2023/03/22 07:59:46;;;;;;;0.00;0.00;;;19.80;79.60;;;;;;4973705;28;20173;-59
2023/03/22 08:02:12;;;;;;;0.00;0.00;;;20.10;78.00;;;;;;4973369;28;20224;-59
2023/03/22 08:04:37;;;;;;;0.00;0.00;;;20.10;76.90;;;;;;4973456;28;20238;-59
2023/03/22 08:07:03;;;;;;;0.00;0.00;;;20.00;74.50;;;;;;4973316;28;20637;-58
2023/03/22 08:09:28;;;;;;;0.00;0.00;;;19.60;74.80;;;;;;4956183;28;20638;-58
2023/03/22 08:11:54;;;;;;;0.00;0.00;;;19.10;74.40;;;;;;4972736;28;20192;-58
2023/03/22 08:14:19;;;;;;;0.00;0.00;;;18.60;75.30;;;;;;4973255;28;20243;-58
2023/03/22 08:16:45;;;;;;;0.00;0.00;;;18.10;78.30;;;;;;4973363;28;20195;-59
2023/03/22 08:19:11;;;;;;;0.00;0.00;;;18.00;80.80;;;;;;4973067;28;20619;-58
2023/03/22 08:21:37;;;;;;;0.00;0.00;;;17.90;81.60;;;;;;4973151;28;20679;-59
2023/03/22 08:24:04;;;;;;;0.00;0.00;;;18.00;83.10;;;;;;4972884;28;20186;-58
2023/03/22 08:26:30;;;;;;;0.00;0.00;;;17.70;80.00;;;;;;4973210;28;20184;-59
2023/03/22 08:28:56;;;;;;;0.00;0.00;;;17.60;83.70;;;;;;4972995;28;20585;-59
2023/03/22 08:31:22;;;;;;;0.00;0.00;;;17.80;81.70;;;;;;4973127;28;20185;-59
2023/03/22 08:33:48;;;;;;;0.00;0.00;;;18.30;82.40;;;;;;4973037;28;20206;-59
2023/03/22 08:36:20;;;;;;;0.00;0.00;;;19.20;80.70;;;;;;4972678;28;20260;-59
2023/03/22 08:38:46;;;;;;;0.00;0.00;;;19.90;76.70;;;;;;4973018;28;20541;-60
2023/03/22 08:41:12;;;;;;;0.00;0.00;;;19.80;74.60;;;;;;4972681;28;20208;-59
2023/03/22 08:43:37;;;;;;;0.00;0.00;;;19.80;74.70;;;;;;4980033;28;20625;-59
2023/03/22 08:46:03;;;;;;;0.00;0.00;;;19.50;74.80;;;;;;4983796;28;20172;-59
2023/03/22 08:48:29;;;;;;;0.00;0.00;;;19.20;75.20;;;;;;4972876;28;20687;-59
2023/03/22 08:50:56;;;;;;;0.00;0.00;;;18.80;75.60;;;;;;4972655;28;20178;-59
2023/03/22 08:53:22;;;;;;;0.00;0.00;;;18.90;76.80;;;;;;4972745;28;20184;-59
2023/03/22 08:55:47;;;;;;;0.00;0.00;;;19.00;76.50;;;;;;4972690;28;20727;-59
2023/03/22 08:58:15;;;;;;;0.00;0.00;;;18.90;76.60;;;;;;4972703;28;20198;-59
2023/03/22 09:00:42;;;;;;;0.00;0.00;;;19.20;77.00;;;;;;4955214;28;20506;-59
2023/03/22 09:03:08;;;;;;;0.00;0.00;;;19.40;77.50;;;;;;4972588;28;20196;-59
2023/03/22 09:05:33;;;;;;;0.00;0.00;;;19.50;75.70;;;;;;4972611;28;20632;-59
2023/03/22 09:08:00;;;;;;;0.40;0.32;;;19.60;75.70;;;;;;4972437;28;20550;-60
2023/03/22 09:10:27;;;;;;;0.00;0.00;;;19.60;75.00;;;;;;4972097;28;20180;-59
2023/03/22 09:12:52;;;;;;;0.00;0.00;;;19.50;73.90;;;;;;4972580;28;20176;-59
2023/03/22 09:15:18;;;;;;;0.00;0.00;;;19.20;73.70;;;;;;4972362;28;20206;-60
2023/03/22 09:17:44;;;;;;;0.00;0.00;;;18.70;73.40;;;;;;4971597;28;20215;-59
2023/03/22 09:20:09;;;;;;;0.00;0.00;;;18.50;74.70;;;;;;4953255;28;20535;-59
2023/03/22 09:22:36;;;;;;;0.00;0.00;;;18.00;75.30;;;;;;4953030;28;20223;-59
2023/03/22 09:25:02;;;;;;;0.00;0.00;;;18.00;77.20;;;;;;4959405;28;20169;-59
2023/03/22 09:27:28;;;;;;;0.00;0.00;;;18.20;78.90;;;;;;4959561;28;20176;-59
2023/03/22 09:29:54;;;;;;;0.00;0.00;;;18.60;76.80;;;;;;4959605;28;20177;-59
2023/03/22 09:32:20;;;;;;;0.00;0.00;;;18.80;78.30;;;;;;4959544;28;20180;-59
2023/03/22 09:34:45;;;;;;;0.00;0.00;;;19.30;78.30;;;;;;4959405;28;20536;-59
2023/03/22 09:37:11;;;;;;;0.00;0.00;;;19.00;74.20;;;;;;4959375;28;20177;-59
2023/03/22 09:39:38;;;;;;;0.00;0.00;;;18.40;75.10;;;;;;4959195;28;20176;-59
2023/03/22 09:42:12;;;;;;;0.00;0.00;;;18.00;76.40;;;;;;4959458;28;20291;-59
2023/03/22 09:44:42;;;;;;;0.00;0.00;;;17.60;76.80;;;;;;4989850;28;20642;-59
2023/03/22 09:47:16;;;;;;;0.00;0.00;;;17.40;77.70;;;;;;4980920;28;20651;-59
2023/03/22 09:49:47;;;;;;;0.00;0.00;;;17.40;78.20;;;;;;4978699;28;20230;-59
2023/03/22 09:52:15;;;;;;;0.00;0.00;;;17.30;79.20;;;;;;4978318;28;20263;-61
2023/03/22 09:54:45;;;;;;;0.00;0.00;;;17.40;79.50;;;;;;4978573;28;20172;-59
2023/03/22 09:57:32;;;;;;;0.00;0.00;;;17.70;79.20;;;;;;4978457;28;20282;-59
2023/03/22 10:00:13;;;;;;;0.00;0.00;;;18.00;77.60;;;;;;4978511;28;20225;-59
2023/03/22 10:02:44;;;;;;;0.00;0.00;;;18.40;77.60;;;;;;4978395;28;20218;-59
2023/03/22 10:05:22;;;;;;;0.00;0.00;;;18.80;77.40;;;;;;4978526;28;20168;-59
2023/03/22 10:07:47;;;;;;;0.00;0.00;;;19.00;76.50;;;;;;4977250;28;20183;-59
2023/03/22 10:10:16;;;;;;;0.00;0.00;;;19.20;75.00;;;;;;4978360;28;20637;-59
2023/03/22 10:12:45;;;;;;;0.00;0.00;;;19.20;74.00;;;;;;4978147;28;20255;-59
2023/03/22 10:15:18;;;;;;;0.00;0.00;;;19.50;75.00;;;;;;4978398;28;20251;-59
2023/03/22 10:17:54;;;;;;;0.00;0.00;;;19.80;74.10;;;;;;4978169;28;20228;-59
2023/03/22 10:20:35;;;;;;;0.00;0.00;;;19.60;71.50;;;;;;4978338;28;20255;-59
2023/03/22 10:23:05;;;;;;;0.00;0.00;;;19.40;71.10;;;;;;4978458;28;20227;-59
2023/03/22 10:25:35;;;;;;;0.00;0.00;;;19.10;70.70;;;;;;4978002;28;20270;-59
2023/03/22 10:28:09;;;;;;;0.10;0.10;;;18.80;72.00;;;;;;4978162;28;20191;-59
2023/03/22 10:30:39;;;;;;;0.00;0.00;;;18.80;73.30;;;;;;4978010;28;20655;-59
2023/03/22 10:33:18;;;;;;;0.00;0.00;;;18.80;73.50;;;;;;4978076;28;20188;-59
2023/03/22 10:35:44;;;;;;;0.00;0.00;;;18.70;73.00;;;;;;4975357;28;20647;-58
2023/03/22 10:38:20;;;;;;;0.00;0.00;;;18.60;72.90;;;;;;4975217;28;20195;-58
2023/03/22 10:40:48;;;;;;;0.00;0.00;;;18.50;72.60;;;;;;4975079;28;20187;-59
2023/03/22 10:43:31;;;;;;;0.00;0.00;;;18.50;74.30;;;;;;4978863;28;20218;-58
2023/03/22 10:46:00;;;;;;;0.00;0.00;;;18.50;73.70;;;;;;4986918;28;20186;-59
2023/03/22 10:48:31;;;;;;;0.00;0.00;;;18.50;73.50;;;;;;4975018;28;20312;-59
2023/03/22 10:50:58;;;;;;;0.00;0.00;;;18.40;74.00;;;;;;4974811;28;20212;-58
2023/03/22 10:53:33;;;;;;;0.00;0.00;;;18.10;73.40;;;;;;4974961;28;20267;-58
2023/03/22 10:55:59;;;;;;;0.00;0.00;;;18.10;73.50;;;;;;4974672;28;20183;-59
2023/03/22 10:58:30;;;;;;;0.00;0.00;;;18.30;73.50;;;;;;4974644;28;20267;-59
2023/03/22 11:01:02;;;;;;;0.00;0.00;;;18.50;73.10;;;;;;4974406;28;20267;-59
2023/03/22 11:03:37;;;;;;;0.00;0.00;;;18.70;73.80;;;;;;4974782;28;20188;-58
2023/03/22 11:06:12;;;;;;;0.00;0.00;;;18.90;72.60;;;;;;4974639;28;20207;-59
2023/03/22 11:08:53;;;;;;;0.00;0.00;;;19.10;71.40;;;;;;4974540;28;20657;-58
2023/03/22 11:11:53;;;;;;;0.00;0.00;;;19.30;70.70;;;;;;4974248;28;20212;-59
2023/03/22 11:14:26;;;;;;;0.00;0.00;;;19.30;70.40;;;;;;4955024;28;20285;-58
2023/03/22 11:16:57;;;;;;;0.00;0.00;;;19.30;69.60;;;;;;4955149;28;20202;-59
2023/03/22 11:19:26;;;;;;;0.00;0.00;;;19.40;70.20;;;;;;4951374;28;20255;-59
2023/03/22 11:21:54;;;;;;;0.00;0.00;;;19.40;69.10;;;;;;4974387;28;20212;-58
2023/03/22 11:24:22;;;;;;;0.00;0.00;;;19.50;69.30;;;;;;4974251;28;20239;-58
2023/03/22 11:27:17;;;;;;;0.00;0.00;;;19.60;68.90;;;;;;4974309;28;20176;-58
2023/03/22 11:29:46;;;;;;;0.00;0.00;;;19.90;68.70;;;;;;4974365;28;20247;-59
2023/03/22 11:32:29;;;;;;;0.00;0.00;;;20.20;68.70;;;;;;4974292;28;20172;-58
2023/03/22 11:35:04;;;;;;;0.00;0.00;;;20.30;67.70;;;;;;4973952;28;20169;-58
2023/03/22 11:37:30;;;;;;;0.00;0.00;;;20.20;65.90;;;;;;4974200;28;20180;-58
2023/03/22 11:40:03;;;;;;;0.00;0.00;;;20.20;66.80;;;;;;4973881;28;20231;-59
2023/03/22 11:42:32;;;;;;;0.00;0.00;;;20.30;67.70;;;;;;4973954;28;20211;-58
2023/03/22 11:44:58;;;;;;;0.00;0.00;;;20.20;64.50;;;;;;4991829;28;20190;-58
2023/03/22 11:47:26;;;;;;;0.00;0.00;;;20.00;65.40;;;;;;4981109;28;20192;-58
2023/03/22 11:49:56;;;;;;;0.00;0.00;;;20.00;66.60;;;;;;4973950;28;20208;-58
2023/03/22 11:52:26;;;;;;;0.00;0.00;;;19.70;66.10;;;;;;4973599;28;20210;-58
2023/03/22 11:54:53;;;;;;;0.00;0.00;;;19.40;65.90;;;;;;4973877;28;20194;-58
2023/03/22 11:57:26;;;;;;;0.00;0.00;;;19.20;65.50;;;;;;4973380;28;20279;-58
2023/03/22 11:59:59;;;;;;;0.00;0.00;;;19.20;67.30;;;;;;4973765;28;20213;-58
2023/03/22 12:02:31;;;;;;;0.00;0.00;;;19.20;66.00;;;;;;4973512;28;20242;-58
2023/03/22 12:05:10;;;;;;;0.00;0.00;;;19.40;67.80;;;;;;4973306;28;20651;-58
2023/03/22 12:07:37;;;;;;;0.00;0.00;;;19.30;66.60;;;;;;4973363;28;20172;-58
2023/03/22 12:10:14;;;;;;;0.00;0.00;;;19.20;65.70;;;;;;4973491;28;20592;-58
2023/03/22 12:12:48;;;;;;;0.00;0.00;;;19.10;66.20;;;;;;4973017;28;20176;-58
2023/03/22 12:15:30;;;;;;;0.00;0.00;;;18.90;67.20;;;;;;4953966;28;20259;-58
2023/03/22 12:18:06;;;;;;;0.00;0.00;;;19.10;67.40;;;;;;4955828;28;20229;-58
2023/03/22 12:20:47;;;;;;;0.00;0.00;;;18.90;66.50;;;;;;4973356;28;20172;-58
2023/03/22 12:23:17;;;;;;;0.00;0.00;;;18.70;67.10;;;;;;4973177;28;20219;-58
2023/03/22 12:26:02;;;;;;;0.00;0.00;;;18.60;66.70;;;;;;4973103;28;20187;-58
2023/03/22 12:28:52;;;;;;;0.00;0.00;;;18.70;67.60;;;;;;4973231;28;20224;-58
2023/03/22 12:31:25;;;;;;;0.00;0.00;;;18.80;67.10;;;;;;4972900;28;20180;-58
2023/03/22 12:33:53;;;;;;;0.00;0.00;;;19.00;68.50;;;;;;4973029;28;20180;-58
2023/03/22 12:36:37;;;;;;;0.00;0.00;;;19.20;67.40;;;;;;4972645;28;20191;-58
2023/03/22 12:39:06;;;;;;;0.00;0.00;;;19.50;66.50;;;;;;4972838;28;20609;-58
2023/03/22 12:41:39;;;;;;;0.00;0.00;;;19.60;65.50;;;;;;4972930;28;20218;-58
2023/03/22 12:44:17;;;;;;;0.00;0.00;;;19.80;66.40;;;;;;4983450;28;20207;-58
2023/03/22 12:46:57;;;;;;;0.00;0.00;;;19.80;64.60;;;;;;4978638;28;20180;-58
2023/03/22 12:49:45;;;;;;;0.00;0.00;;;19.90;63.90;;;;;;4972846;28;20262;-59
2023/03/22 12:52:14;;;;;;;0.00;0.00;;;19.90;64.00;;;;;;4955315;28;20254;-58
2023/03/22 12:54:40;;;;;;;0.00;0.00;;;19.80;64.00;;;;;;4972689;28;20180;-58
2023/03/22 12:57:08;;;;;;;0.00;0.00;;;19.70;63.90;;;;;;4972540;28;20187;-58
2023/03/22 12:59:35;;;;;;;0.00;0.00;;;19.80;64.90;;;;;;4972026;28;20651;-58
2023/03/22 13:02:17;;;;;;;0.00;0.00;;;19.80;64.70;;;;;;4972488;28;20230;-58
2023/03/22 13:04:50;;;;;;;0.00;0.00;;;19.80;63.30;;;;;;4972378;28;20311;-58
2023/03/22 13:07:50;;;;;;;0.00;0.00;;;19.90;64.10;;;;;;4972299;28;20187;-58